ダッカ の空港の天気 - METARとTAF

シャージャラル国際空港(ダッカ) ( VGHS / DAC ) - バングラデシュ ダッカ
飛行場実況気象(Metar)
観測時間04/27 22:30 +06 (04/27 16:30 UTC)
風向・風速南 3m/s
視程3500m
天気現象煙霧
全天の4割程度の雲 雲底高度 300m
全天の8割程度の雲 雲底高度 3050m
気温29℃
湿度79%
気圧1007hPa
METARVGHS 271630Z 17006KT 3500 HZ SCT010 BKN100 29/25 Q1007 NOSIG
過去の天気等 Google飛行場航空写真 Wunderground天気予報

過去48時間のMETAR

飛行場予報(TAF)
発表時間: 4/27 17:00 +06 (4/27 11:00 UTC)
予報対象時間: 27日18時 +06 ~ 29日0時 +06
風向・風速南 5m/s
視程4,000m
天気現象煙霧
全天の4割程度の雲 雲底高度 460m
全天の8割程度の雲 雲底高度 3,050m
27日20時 +06 ~ 28日6時 +06 に一時的に
風向・風速西 13m/s 瞬間風速 18m/s
視程2,000m
28日6時 +06 ~ 28日8時 +06 に徐々に
風向・風速南南東 4m/s
視程3,500m
天気現象煙霧
全天の4割程度の雲 雲底高度 300m
全天の8割程度の雲 雲底高度 3,050m
28日10時 +06 ~ 28日12時 +06 に徐々に
風向・風速南 5m/s
視程4,000m
天気現象煙霧
全天の4割程度の雲 雲底高度 460m
全天の4割程度の雲 雲底高度 3,050m
28日12時 +06 ~ 28日20時 +06 に一時的に
風向・風速西 13m/s 瞬間風速 18m/s
視程2,000m
TAF VGHS 271100Z 2712/2818 19010KT 4000 HZ SCT015 BKN100
TEMPO 2714/2800 28025G35KT 2000 RA/TSRA BKN007 FEW025CB OVC090
BECMG 2800/2802 16008KT 3500 HZ SCT010 BKN100
BECMG 2804/2806 17010KT 4000 HZ SCT015 SCT100
TEMPO 2806/2814 28025G35KT 2000 RA/TSRA BKN007 FEW025CB OVC090